sensor_id;sensor_type;location;lat;lon;timestamp;pressure;altitude;pressure_sealevel;temperature
48854;BMP280;34673;52.808;17.856;2023-12-04T00:02:11;100870.09;;;-2.09
48854;BMP280;34673;52.808;17.856;2023-12-04T00:04:38;100870.09;;;-2.09
48854;BMP280;34673;52.808;17.856;2023-12-04T00:07:05;100875.16;;;-2.09
48854;BMP280;34673;52.808;17.856;2023-12-04T00:09:32;100877.63;;;-2.11
48854;BMP280;34673;52.808;17.856;2023-12-04T00:12:00;100874.06;;;-2.14
48854;BMP280;34673;52.808;17.856;2023-12-04T00:14:27;100876.59;;;-2.14
48854;BMP280;34673;52.808;17.856;2023-12-04T00:16:54;100875.88;;;-2.12
48854;BMP280;34673;52.808;17.856;2023-12-04T00:19:22;100857.91;;;-2.16
48854;BMP280;34673;52.808;17.856;2023-12-04T00:21:49;100861.56;;;-2.11
48854;BMP280;34673;52.808;17.856;2023-12-04T00:24:16;100865.00;;;-2.09
48854;BMP280;34673;52.808;17.856;2023-12-04T00:26:44;100861.69;;;-2.08
48854;BMP280;34673;52.808;17.856;2023-12-04T00:29:11;100879.75;;;-2.02
48854;BMP280;34673;52.808;17.856;2023-12-04T00:31:38;100867.06;;;-2.02
48854;BMP280;34673;52.808;17.856;2023-12-04T00:34:05;100872.94;;;-2.03
48854;BMP280;34673;52.808;17.856;2023-12-04T00:36:33;100869.59;;;-2.02
48854;BMP280;34673;52.808;17.856;2023-12-04T00:39:00;100868.50;;;-2.07
48854;BMP280;34673;52.808;17.856;2023-12-04T00:41:27;100872.81;;;-2.06
48854;BMP280;34673;52.808;17.856;2023-12-04T00:43:55;100873.72;;;-2.04
48854;BMP280;34673;52.808;17.856;2023-12-04T00:46:22;100880.22;;;-2.09
48854;BMP280;34673;52.808;17.856;2023-12-04T00:48:49;100887.06;;;-2.08
48854;BMP280;34673;52.808;17.856;2023-12-04T00:51:44;100881.28;;;-2.06
48854;BMP280;34673;52.808;17.856;2023-12-04T00:54:11;100879.34;;;-2.10
48854;BMP280;34673;52.808;17.856;2023-12-04T00:56:39;100883.56;;;-2.10
48854;BMP280;34673;52.808;17.856;2023-12-04T00:59:09;100875.97;;;-2.10
48854;BMP280;34673;52.808;17.856;2023-12-04T01:01:37;100876.75;;;-2.11
48854;BMP280;34673;52.808;17.856;2023-12-04T01:04:04;100881.97;;;-2.08
48854;BMP280;34673;52.808;17.856;2023-12-04T01:06:32;100886.91;;;-2.11
48854;BMP280;34673;52.808;17.856;2023-12-04T01:08:59;100885.28;;;-2.09
48854;BMP280;34673;52.808;17.856;2023-12-04T01:11:26;100888.78;;;-2.07
48854;BMP280;34673;52.808;17.856;2023-12-04T01:13:53;100892.28;;;-2.05
48854;BMP280;34673;52.808;17.856;2023-12-04T01:16:20;100891.31;;;-2.07
48854;BMP280;34673;52.808;17.856;2023-12-04T01:18:48;100882.13;;;-2.05
48854;BMP280;34673;52.808;17.856;2023-12-04T01:21:15;100888.16;;;-2.03
48854;BMP280;34673;52.808;17.856;2023-12-04T01:23:42;100886.41;;;-2.04
48854;BMP280;34673;52.808;17.856;2023-12-04T01:26:10;100883.09;;;-2.03
48854;BMP280;34673;52.808;17.856;2023-12-04T01:28:37;100879.59;;;-2.05
48854;BMP280;34673;52.808;17.856;2023-12-04T01:31:05;100880.56;;;-2.03
48854;BMP280;34673;52.808;17.856;2023-12-04T01:33:33;100887.34;;;-2.02
48854;BMP280;34673;52.808;17.856;2023-12-04T01:36:02;100894.97;;;-2.02
48854;BMP280;34673;52.808;17.856;2023-12-04T01:38:29;100897.50;;;-2.02
48854;BMP280;34673;52.808;17.856;2023-12-04T01:40:57;100894.16;;;-2.01
48854;BMP280;34673;52.808;17.856;2023-12-04T01:43:24;100894.00;;;-2.04
48854;BMP280;34673;52.808;17.856;2023-12-04T01:45:52;100893.84;;;-2.07
48854;BMP280;34673;52.808;17.856;2023-12-04T01:48:19;100897.19;;;-2.08
48854;BMP280;34673;52.808;17.856;2023-12-04T01:50:48;100900.84;;;-2.03
48854;BMP280;34673;52.808;17.856;2023-12-04T01:53:15;100901.59;;;-2.04
48854;BMP280;34673;52.808;17.856;2023-12-04T01:55:43;100899.22;;;-2.01
48854;BMP280;34673;52.808;17.856;2023-12-04T01:58:11;100884.41;;;-2.10
48854;BMP280;34673;52.808;17.856;2023-12-04T02:00:38;100873.41;;;-2.10
48854;BMP280;34673;52.808;17.856;2023-12-04T02:03:06;100895.75;;;-2.03
48854;BMP280;34673;52.808;17.856;2023-12-04T02:05:35;100890.34;;;-2.09
48854;BMP280;34673;52.808;17.856;2023-12-04T02:08:04;100891.97;;;-2.11
48854;BMP280;34673;52.808;17.856;2023-12-04T02:10:31;100891.97;;;-2.11
48854;BMP280;34673;52.808;17.856;2023-12-04T02:12:58;100893.53;;;-2.13
48854;BMP280;34673;52.808;17.856;2023-12-04T02:15:26;100904.53;;;-2.13
48854;BMP280;34673;52.808;17.856;2023-12-04T02:17:54;100902.88;;;-2.12
48854;BMP280;34673;52.808;17.856;2023-12-04T02:20:31;100910.47;;;-2.12
48854;BMP280;34673;52.808;17.856;2023-12-04T02:23:03;100910.31;;;-2.15
48854;BMP280;34673;52.808;17.856;2023-12-04T02:25:30;100913.66;;;-2.16
48854;BMP280;34673;52.808;17.856;2023-12-04T02:28:07;100904.28;;;-2.17
48854;BMP280;34673;52.808;17.856;2023-12-04T02:30:37;100908.44;;;-2.19
48854;BMP280;34673;52.808;17.856;2023-12-04T02:33:06;100910.16;;;-2.18
48854;BMP280;34673;52.808;17.856;2023-12-04T02:35:35;100902.47;;;-2.20
48854;BMP280;34673;52.808;17.856;2023-12-04T02:38:05;100900.75;;;-2.21
48854;BMP280;34673;52.808;17.856;2023-12-04T02:40:33;100904.16;;;-2.20
48854;BMP280;34673;52.808;17.856;2023-12-04T02:43:00;100886.72;;;-2.31
48854;BMP280;34673;52.808;17.856;2023-12-04T02:45:28;100892.91;;;-2.26
48854;BMP280;34673;52.808;17.856;2023-12-04T02:47:55;100909.06;;;-2.24
48854;BMP280;34673;52.808;17.856;2023-12-04T02:50:23;100904.78;;;-2.25
48854;BMP280;34673;52.808;17.856;2023-12-04T02:52:50;100913.50;;;-2.19
48854;BMP280;34673;52.808;17.856;2023-12-04T02:55:18;100909.22;;;-2.20
48854;BMP280;34673;52.808;17.856;2023-12-04T02:57:45;100908.28;;;-2.22
48854;BMP280;34673;52.808;17.856;2023-12-04T03:00:13;100911.75;;;-2.20
48854;BMP280;34673;52.808;17.856;2023-12-04T03:02:40;100913.50;;;-2.19
48854;BMP280;34673;52.808;17.856;2023-12-04T03:05:07;100915.25;;;-2.18
48854;BMP280;34673;52.808;17.856;2023-12-04T03:07:35;100897.75;;;-2.30
48854;BMP280;34673;52.808;17.856;2023-12-04T03:10:03;100918.56;;;-2.19
48854;BMP280;34673;52.808;17.856;2023-12-04T03:12:30;100915.09;;;-2.21
48854;BMP280;34673;52.808;17.856;2023-12-04T03:14:58;100925.22;;;-2.21
48854;BMP280;34673;52.808;17.856;2023-12-04T03:17:25;100923.50;;;-2.22
48854;BMP280;34673;52.808;17.856;2023-12-04T03:19:52;100930.91;;;-2.26
48854;BMP280;34673;52.808;17.856;2023-12-04T03:22:20;100916.59;;;-2.25
48854;BMP280;34673;52.808;17.856;2023-12-04T03:24:47;100925.06;;;-2.25
48854;BMP280;34673;52.808;17.856;2023-12-04T03:27:14;100913.16;;;-2.26
48854;BMP280;34673;52.808;17.856;2023-12-04T03:29:42;100926.78;;;-2.24
48854;BMP280;34673;52.808;17.856;2023-12-04T03:32:09;100918.22;;;-2.26
48854;BMP280;34673;52.808;17.856;2023-12-04T03:34:36;100921.72;;;-2.24
48854;BMP280;34673;52.808;17.856;2023-12-04T03:37:04;100914.94;;;-2.25
48854;BMP280;34673;52.808;17.856;2023-12-04T03:39:31;100920.00;;;-2.25
48854;BMP280;34673;52.808;17.856;2023-12-04T03:41:58;100905.66;;;-2.24
48854;BMP280;34673;52.808;17.856;2023-12-04T03:44:26;100906.53;;;-2.24
48854;BMP280;34673;52.808;17.856;2023-12-04T03:46:53;100898.66;;;-2.28
48854;BMP280;34673;52.808;17.856;2023-12-04T03:49:20;100905.56;;;-2.26
48854;BMP280;34673;52.808;17.856;2023-12-04T03:51:48;100904.63;;;-2.28
48854;BMP280;34673;52.808;17.856;2023-12-04T03:54:15;100911.28;;;-2.30
48854;BMP280;34673;52.808;17.856;2023-12-04T03:56:42;100909.44;;;-2.32
48854;BMP280;34673;52.808;17.856;2023-12-04T03:59:10;100906.91;;;-2.32
48854;BMP280;34673;52.808;17.856;2023-12-04T04:01:37;100908.66;;;-2.31
48854;BMP280;34673;52.808;17.856;2023-12-04T04:04:05;100910.56;;;-2.27
48854;BMP280;34673;52.808;17.856;2023-12-04T04:06:32;100916.59;;;-2.25
48854;BMP280;34673;52.808;17.856;2023-12-04T04:09:00;100904.44;;;-2.31
48854;BMP280;34673;52.808;17.856;2023-12-04T04:11:27;100904.63;;;-2.28
48854;BMP280;34673;52.808;17.856;2023-12-04T04:13:54;100919.03;;;-2.27
48854;BMP280;34673;52.808;17.856;2023-12-04T04:16:21;100913.16;;;-2.26
48854;BMP280;34673;52.808;17.856;2023-12-04T04:18:49;100918.22;;;-2.26
48854;BMP280;34673;52.808;17.856;2023-12-04T04:21:16;100913.34;;;-2.22
48854;BMP280;34673;52.808;17.856;2023-12-04T04:23:43;100916.81;;;-2.20
48854;BMP280;34673;52.808;17.856;2023-12-04T04:26:10;100920.31;;;-2.18
48854;BMP280;34673;52.808;17.856;2023-12-04T04:28:38;100915.25;;;-2.18
48854;BMP280;34673;52.808;17.856;2023-12-04T04:31:05;100904.16;;;-2.20
48854;BMP280;34673;52.808;17.856;2023-12-04T04:33:33;100913.16;;;-2.26
48854;BMP280;34673;52.808;17.856;2023-12-04T04:36:00;100916.34;;;-2.30
48854;BMP280;34673;52.808;17.856;2023-12-04T04:38:28;100912.84;;;-2.32
48854;BMP280;34673;52.808;17.856;2023-12-04T04:40:56;100910.97;;;-2.36
48854;BMP280;34673;52.808;17.856;2023-12-04T04:43:23;100901.00;;;-2.33
48854;BMP280;34673;52.808;17.856;2023-12-04T04:45:51;100898.03;;;-2.40
48854;BMP280;34673;52.808;17.856;2023-12-04T04:48:18;100902.41;;;-2.38
48854;BMP280;34673;52.808;17.856;2023-12-04T04:50:46;100912.53;;;-2.38
48854;BMP280;34673;52.808;17.856;2023-12-04T04:53:14;100903.50;;;-2.49
48854;BMP280;34673;52.808;17.856;2023-12-04T04:55:41;100913.78;;;-2.46
48854;BMP280;34673;52.808;17.856;2023-12-04T04:58:16;100920.59;;;-2.45
48854;BMP280;34673;52.808;17.856;2023-12-04T05:00:46;100925.66;;;-2.45
48854;BMP280;34673;52.808;17.856;2023-12-04T05:03:14;100918.84;;;-2.46
48854;BMP280;34673;52.808;17.856;2023-12-04T05:05:42;100898.88;;;-2.56
48854;BMP280;34673;52.808;17.856;2023-12-04T05:08:09;100913.78;;;-2.46
48854;BMP280;34673;52.808;17.856;2023-12-04T05:10:38;100924.94;;;-2.42
48854;BMP280;34673;52.808;17.856;2023-12-04T05:13:06;100908.22;;;-2.55
48854;BMP280;34673;52.808;17.856;2023-12-04T05:15:33;100922.16;;;-2.47
48854;BMP280;34673;52.808;17.856;2023-12-04T05:18:01;100918.00;;;-2.47
48854;BMP280;34673;52.808;17.856;2023-12-04T05:20:28;100905.06;;;-2.51
48854;BMP280;34673;52.808;17.856;2023-12-04T05:22:57;100911.88;;;-2.50
48854;BMP280;34673;52.808;17.856;2023-12-04T05:25:24;100898.28;;;-2.52
48854;BMP280;34673;52.808;17.856;2023-12-04T05:27:59;100900.97;;;-2.49
48854;BMP280;34673;52.808;17.856;2023-12-04T05:30:27;100906.97;;;-2.47
48854;BMP280;34673;52.808;17.856;2023-12-04T05:32:54;100906.19;;;-2.46
48854;BMP280;34673;52.808;17.856;2023-12-04T05:35:22;100905.38;;;-2.45
48854;BMP280;34673;52.808;17.856;2023-12-04T05:37:49;100908.56;;;-2.49
48854;BMP280;34673;52.808;17.856;2023-12-04T05:40:16;100907.50;;;-2.53
48854;BMP280;34673;52.808;17.856;2023-12-04T05:42:44;100903.16;;;-2.55
48854;BMP280;34673;52.808;17.856;2023-12-04T05:45:11;100913.63;;;-2.49
48854;BMP280;34673;52.808;17.856;2023-12-04T05:47:39;100920.28;;;-2.51
48854;BMP280;34673;52.808;17.856;2023-12-04T05:50:06;100909.97;;;-2.54
48854;BMP280;34673;52.808;17.856;2023-12-04T05:52:34;100917.84;;;-2.50
48854;BMP280;34673;52.808;17.856;2023-12-04T05:55:01;100913.63;;;-2.49
48854;BMP280;34673;52.808;17.856;2023-12-04T05:57:29;100910.84;;;-2.54
48854;BMP280;34673;52.808;17.856;2023-12-04T05:59:56;100907.59;;;-2.51
48854;BMP280;34673;52.808;17.856;2023-12-04T06:02:23;100905.63;;;-2.57
48854;BMP280;34673;52.808;17.856;2023-12-04T06:04:51;100909.66;;;-2.60
48854;BMP280;34673;52.808;17.856;2023-12-04T06:07:18;100903.94;;;-2.56
48854;BMP280;34673;52.808;17.856;2023-12-04T06:09:45;100906.66;;;-2.53
48854;BMP280;34673;52.808;17.856;2023-12-04T06:12:12;100911.72;;;-2.53
48854;BMP280;34673;52.808;17.856;2023-12-04T06:14:40;100914.09;;;-2.56
48854;BMP280;34673;52.808;17.856;2023-12-04T06:17:07;100904.41;;;-2.63
48854;BMP280;34673;52.808;17.856;2023-12-04T06:19:34;100911.22;;;-2.62
48854;BMP280;34673;52.808;17.856;2023-12-04T06:22:02;100908.69;;;-2.62
48854;BMP280;34673;52.808;17.856;2023-12-04T06:24:30;100899.53;;;-2.60
48854;BMP280;34673;52.808;17.856;2023-12-04T06:26:58;100906.16;;;-2.62
48854;BMP280;34673;52.808;17.856;2023-12-04T06:29:25;100906.31;;;-2.59
48854;BMP280;34673;52.808;17.856;2023-12-04T06:31:53;100912.97;;;-2.61
48854;BMP280;34673;52.808;17.856;2023-12-04T06:34:21;100902.66;;;-2.64
48854;BMP280;34673;52.808;17.856;2023-12-04T06:36:48;100897.59;;;-2.64
48854;BMP280;34673;52.808;17.856;2023-12-04T06:39:16;100890.97;;;-2.62
48854;BMP280;34673;52.808;17.856;2023-12-04T06:41:44;100893.56;;;-2.61
48854;BMP280;34673;52.808;17.856;2023-12-04T06:44:13;100878.75;;;-2.70
48854;BMP280;34673;52.808;17.856;2023-12-04T06:46:46;100892.84;;;-2.58
48854;BMP280;34673;52.808;17.856;2023-12-04T06:49:17;100899.69;;;-2.57
48854;BMP280;34673;52.808;17.856;2023-12-04T06:51:44;100900.72;;;-2.54
48854;BMP280;34673;52.808;17.856;2023-12-04T06:54:12;100894.78;;;-2.54
48854;BMP280;34673;52.808;17.856;2023-12-04T06:56:40;100894.94;;;-2.51
48854;BMP280;34673;52.808;17.856;2023-12-04T06:59:07;100896.69;;;-2.50
48854;BMP280;34673;52.808;17.856;2023-12-04T07:01:35;100903.66;;;-2.46
48854;BMP280;34673;52.808;17.856;2023-12-04T07:04:02;100886.38;;;-2.53
48854;BMP280;34673;52.808;17.856;2023-12-04T07:06:38;100898.84;;;-2.41
48854;BMP280;34673;52.808;17.856;2023-12-04T07:09:06;100911.56;;;-2.40
48854;BMP280;34673;52.808;17.856;2023-12-04T07:11:36;100915.84;;;-2.39
48854;BMP280;34673;52.808;17.856;2023-12-04T07:14:03;100908.88;;;-2.43
48854;BMP280;34673;52.808;17.856;2023-12-04T07:16:31;100916.47;;;-2.43
48854;BMP280;34673;52.808;17.856;2023-12-04T07:18:58;100904.38;;;-2.49
48854;BMP280;34673;52.808;17.856;2023-12-04T07:21:26;100908.88;;;-2.43
48854;BMP280;34673;52.808;17.856;2023-12-04T07:23:53;100912.22;;;-2.44
48854;BMP280;34673;52.808;17.856;2023-12-04T07:26:21;100913.94;;;-2.43
48854;BMP280;34673;52.808;17.856;2023-12-04T07:28:48;100916.31;;;-2.46
48854;BMP280;34673;52.808;17.856;2023-12-04T07:31:15;100915.53;;;-2.45
48854;BMP280;34673;52.808;17.856;2023-12-04T07:33:42;100920.59;;;-2.45
48854;BMP280;34673;52.808;17.856;2023-12-04T07:36:10;100920.59;;;-2.45
48854;BMP280;34673;52.808;17.856;2023-12-04T07:38:37;100922.00;;;-2.50
48854;BMP280;34673;52.808;17.856;2023-12-04T07:41:04;100919.47;;;-2.50
48854;BMP280;34673;52.808;17.856;2023-12-04T07:43:32;100923.75;;;-2.49
48854;BMP280;34673;52.808;17.856;2023-12-04T07:46:00;100918.69;;;-2.49
48854;BMP280;34673;52.808;17.856;2023-12-04T07:48:27;100913.78;;;-2.46
48854;BMP280;34673;52.808;17.856;2023-12-04T07:50:56;100913.16;;;-2.42
48854;BMP280;34673;52.808;17.856;2023-12-04T07:53:24;100917.28;;;-2.44
48854;BMP280;34673;52.808;17.856;2023-12-04T07:55:51;100911.25;;;-2.46
48854;BMP280;34673;52.808;17.856;2023-12-04T07:58:18;100895.03;;;-2.50
48854;BMP280;34673;52.808;17.856;2023-12-04T08:00:46;100914.09;;;-2.40
48854;BMP280;34673;52.808;17.856;2023-12-04T08:03:13;100914.28;;;-2.37
48854;BMP280;34673;52.808;17.856;2023-12-04T08:05:40;100904.38;;;-2.32
48854;BMP280;34673;52.808;17.856;2023-12-04T08:08:07;100909.84;;;-2.25
48854;BMP280;34673;52.808;17.856;2023-12-04T08:10:35;100909.22;;;-2.20
48854;BMP280;34673;52.808;17.856;2023-12-04T08:13:02;100901.59;;;-2.20
48854;BMP280;34673;52.808;17.856;2023-12-04T08:15:29;100902.31;;;-2.23
48854;BMP280;34673;52.808;17.856;2023-12-04T08:17:57;100910.06;;;-2.20
48854;BMP280;34673;52.808;17.856;2023-12-04T08:20:25;100912.25;;;-2.11
48854;BMP280;34673;52.808;17.856;2023-12-04T08:23:02;100910.63;;;-2.09
48854;BMP280;34673;52.808;17.856;2023-12-04T08:25:30;100909.06;;;-2.07
48854;BMP280;34673;52.808;17.856;2023-12-04T08:27:58;100910.81;;;-2.06
48854;BMP280;34673;52.808;17.856;2023-12-04T08:30:27;100913.56;;;-2.02
48854;BMP280;34673;52.808;17.856;2023-12-04T08:32:54;100912.09;;;-1.98
48854;BMP280;34673;52.808;17.856;2023-12-04T08:35:21;100905.25;;;-1.99
48854;BMP280;34673;52.808;17.856;2023-12-04T08:37:49;100903.81;;;-1.94
48854;BMP280;34673;52.808;17.856;2023-12-04T08:40:16;100905.56;;;-1.93
48854;BMP280;34673;52.808;17.856;2023-12-04T08:42:44;100910.81;;;-1.90
48854;BMP280;34673;52.808;17.856;2023-12-04T08:45:12;100927.28;;;-1.82
48854;BMP280;34673;52.808;17.856;2023-12-04T08:47:40;100919.31;;;-1.71
48854;BMP280;34673;52.808;17.856;2023-12-04T08:50:07;100929.81;;;-1.65
48854;BMP280;34673;52.808;17.856;2023-12-04T08:52:36;100936.75;;;-1.61
48854;BMP280;34673;52.808;17.856;2023-12-04T08:55:05;100938.72;;;-1.56
48854;BMP280;34673;52.808;17.856;2023-12-04T08:57:33;100927.81;;;-1.54
48854;BMP280;34673;52.808;17.856;2023-12-04T09:00:00;100936.00;;;-1.42
48854;BMP280;34673;52.808;17.856;2023-12-04T09:02:27;100938.53;;;-1.42
48854;BMP280;34673;52.808;17.856;2023-12-04T09:04:55;100953.06;;;-1.40
48854;BMP280;34673;52.808;17.856;2023-12-04T09:07:22;100945.69;;;-1.35
48854;BMP280;34673;52.808;17.856;2023-12-04T09:09:52;100948.59;;;-1.27
48854;BMP280;34673;52.808;17.856;2023-12-04T09:12:20;100951.28;;;-1.24
48854;BMP280;34673;52.808;17.856;2023-12-04T09:14:47;100953.88;;;-1.23
48854;BMP280;34673;52.808;17.856;2023-12-04T09:17:15;100951.34;;;-1.23
48854;BMP280;34673;52.808;17.856;2023-12-04T09:19:43;100955.41;;;-1.26
48854;BMP280;34673;52.808;17.856;2023-12-04T09:22:10;100948.16;;;-1.19
48854;BMP280;34673;52.808;17.856;2023-12-04T09:24:45;100951.38;;;-1.05
48854;BMP280;34673;52.808;17.856;2023-12-04T09:27:12;100951.66;;;-0.99
48854;BMP280;34673;52.808;17.856;2023-12-04T09:29:42;100946.59;;;-0.99
48854;BMP280;34673;52.808;17.856;2023-12-04T09:32:10;100954.16;;;-1.00
48854;BMP280;34673;52.808;17.856;2023-12-04T09:34:37;100961.19;;;-0.95
48854;BMP280;34673;52.808;17.856;2023-12-04T09:37:05;100957.75;;;-0.95
48854;BMP280;34673;52.808;17.856;2023-12-04T09:39:37;100960.22;;;-0.97
48854;BMP280;34673;52.808;17.856;2023-12-04T09:42:06;100955.28;;;-0.94
48854;BMP280;34673;52.808;17.856;2023-12-04T09:44:36;100950.88;;;-0.98
48854;BMP280;34673;52.808;17.856;2023-12-04T09:47:04;100950.94;;;-0.96
48854;BMP280;34673;52.808;17.856;2023-12-04T09:49:32;100951.03;;;-0.95
48854;BMP280;34673;52.808;17.856;2023-12-04T09:52:04;100958.06;;;-0.89
48854;BMP280;34673;52.808;17.856;2023-12-04T09:54:35;100958.78;;;-0.92
48854;BMP280;34673;52.808;17.856;2023-12-04T09:57:04;100956.88;;;-0.96
48854;BMP280;34673;52.808;17.856;2023-12-04T09:59:32;100960.47;;;-0.92
48854;BMP280;34673;52.808;17.856;2023-12-04T10:02:00;100955.28;;;-0.94
48854;BMP280;34673;52.808;17.856;2023-12-04T10:04:27;100953.69;;;-0.92
48854;BMP280;34673;52.808;17.856;2023-12-04T10:06:55;100949.50;;;-0.91
48854;BMP280;34673;52.808;17.856;2023-12-04T10:09:22;100946.22;;;-0.88
48854;BMP280;34673;52.808;17.856;2023-12-04T10:11:50;100935.25;;;-0.87
48854;BMP280;34673;52.808;17.856;2023-12-04T10:14:21;100933.38;;;-0.92
48854;BMP280;34673;52.808;17.856;2023-12-04T10:16:49;100929.25;;;-0.90
48854;BMP280;34673;52.808;17.856;2023-12-04T10:19:19;100928.72;;;-0.82
48854;BMP280;34673;52.808;17.856;2023-12-04T10:21:49;100934.09;;;-0.76
48854;BMP280;34673;52.808;17.856;2023-12-04T10:24:37;100932.59;;;-0.73
48854;BMP280;34673;52.808;17.856;2023-12-04T10:27:07;100932.00;;;-0.67
48854;BMP280;34673;52.808;17.856;2023-12-04T10:29:47;100934.69;;;-0.64
48854;BMP280;34673;52.808;17.856;2023-12-04T10:32:18;100927.78;;;-0.67
48854;BMP280;34673;52.808;17.856;2023-12-04T10:34:49;100926.09;;;-0.66
48854;BMP280;34673;52.808;17.856;2023-12-04T10:37:17;100925.59;;;-0.59
48854;BMP280;34673;52.808;17.856;2023-12-04T10:39:50;100928.41;;;-0.53
48854;BMP280;34673;52.808;17.856;2023-12-04T10:42:28;100923.34;;;-0.53
48854;BMP280;34673;52.808;17.856;2023-12-04T10:44:57;100915.66;;;-0.54
48854;BMP280;34673;52.808;17.856;2023-12-04T10:47:26;100923.47;;;-0.50
48854;BMP280;34673;52.808;17.856;2023-12-04T10:49:54;100915.06;;;-0.49
48854;BMP280;34673;52.808;17.856;2023-12-04T10:52:22;100917.19;;;-0.38
48854;BMP280;34673;52.808;17.856;2023-12-04T10:54:50;100916.69;;;-0.31
48854;BMP280;34673;52.808;17.856;2023-12-04T10:57:27;100910.25;;;-0.42
48854;BMP280;34673;52.808;17.856;2023-12-04T11:00:03;100914.78;;;-0.35
48854;BMP280;34673;52.808;17.856;2023-12-04T11:02:34;100920.09;;;-0.31
48854;BMP280;34673;52.808;17.856;2023-12-04T11:05:07;100916.81;;;-0.28
48854;BMP280;34673;52.808;17.856;2023-12-04T11:07:47;100914.41;;;-0.25
48854;BMP280;34673;52.808;17.856;2023-12-04T11:13:30;100905.56;;;-0.33
48854;BMP280;34673;52.808;17.856;2023-12-04T11:16:08;100917.50;;;-0.32
48854;BMP280;34673;52.808;17.856;2023-12-04T11:18:43;100912.31;;;-0.34
48854;BMP280;34673;52.808;17.856;2023-12-04T11:21:11;100912.25;;;-0.35
48854;BMP280;34673;52.808;17.856;2023-12-04T11:23:39;100907.84;;;-0.39
48854;BMP280;34673;52.808;17.856;2023-12-04T11:26:07;100900.34;;;-0.36
48854;BMP280;34673;52.808;17.856;2023-12-04T11:28:36;100902.25;;;-0.32
48854;BMP280;34673;52.808;17.856;2023-12-04T11:31:06;100892.22;;;-0.29
48854;BMP280;34673;52.808;17.856;2023-12-04T11:33:37;100901.03;;;-0.21
48854;BMP280;34673;52.808;17.856;2023-12-04T11:36:11;100891.66;;;-0.22
48854;BMP280;34673;52.808;17.856;2023-12-04T11:38:44;100887.50;;;-0.20
48854;BMP280;34673;52.808;17.856;2023-12-04T11:41:20;100880.56;;;-0.24
48854;BMP280;34673;52.808;17.856;2023-12-04T11:43:55;100880.84;;;-0.18
48854;BMP280;34673;52.808;17.856;2023-12-04T11:46:25;100881.09;;;-0.12
48854;BMP280;34673;52.808;17.856;2023-12-04T11:49:26;100871.03;;;-0.09
48854;BMP280;34673;52.808;17.856;2023-12-04T11:54:14;100873.94;;;-0.01
48854;BMP280;34673;52.808;17.856;2023-12-04T11:59:39;100867.72;;;-0.08
48854;BMP280;34673;52.808;17.856;2023-12-04T12:02:08;100869.19;;;-0.13
48854;BMP280;34673;52.808;17.856;2023-12-04T12:04:36;100865.09;;;-0.09
48854;BMP280;34673;52.808;17.856;2023-12-04T12:07:07;100865.06;;;-0.11
48854;BMP280;34673;52.808;17.856;2023-12-04T12:09:35;100867.84;;;-0.05
48854;BMP280;34673;52.808;17.856;2023-12-04T12:12:04;100857.25;;;-0.14
48854;BMP280;34673;52.808;17.856;2023-12-04T12:14:31;100853.69;;;-0.19
48854;BMP280;34673;52.808;17.856;2023-12-04T12:16:59;100861.69;;;-0.10
48854;BMP280;34673;52.808;17.856;2023-12-04T12:19:27;100867.09;;;-0.02
48854;BMP280;34673;52.808;17.856;2023-12-04T12:21:55;100859.53;;;-0.01
48854;BMP280;34673;52.808;17.856;2023-12-04T12:24:23;100848.28;;;-0.06
48854;BMP280;34673;52.808;17.856;2023-12-04T12:26:53;100856.81;;;0.16
48854;BMP280;34673;52.808;17.856;2023-12-04T12:29:21;100852.13;;;0.25
48854;BMP280;34673;52.808;17.856;2023-12-04T12:31:50;100853.38;;;0.35
48854;BMP280;34673;52.808;17.856;2023-12-04T12:34:17;100837.38;;;0.37
48854;BMP280;34673;52.808;17.856;2023-12-04T12:36:45;100835.63;;;0.36
48854;BMP280;34673;52.808;17.856;2023-12-04T12:39:13;100840.59;;;0.33
48854;BMP280;34673;52.808;17.856;2023-12-04T12:41:49;100832.03;;;0.31
48854;BMP280;34673;52.808;17.856;2023-12-04T12:44:17;100834.88;;;0.18
48854;BMP280;34673;52.808;17.856;2023-12-04T12:46:51;100829.28;;;0.06
48854;BMP280;34673;52.808;17.856;2023-12-04T12:49:19;100832.44;;;0.00
48854;BMP280;34673;52.808;17.856;2023-12-04T12:52:02;100835.84;;;0.01
48854;BMP280;34673;52.808;17.856;2023-12-04T12:54:32;100834.91;;;-0.02
48854;BMP280;34673;52.808;17.856;2023-12-04T12:57:01;100835.00;;;0.00
48854;BMP280;34673;52.808;17.856;2023-12-04T12:59:28;100826.34;;;-0.04
48854;BMP280;34673;52.808;17.856;2023-12-04T13:01:56;100827.94;;;-0.06
48854;BMP280;34673;52.808;17.856;2023-12-04T13:04:37;100824.22;;;-0.14
48854;BMP280;34673;52.808;17.856;2023-12-04T13:07:05;100811.50;;;-0.14
48854;BMP280;34673;52.808;17.856;2023-12-04T13:09:33;100810.75;;;-0.11
48854;BMP280;34673;52.808;17.856;2023-12-04T13:12:06;100806.41;;;-0.14
48854;BMP280;34673;52.808;17.856;2023-12-04T13:14:34;100814.03;;;-0.14
48854;BMP280;34673;52.808;17.856;2023-12-04T13:17:03;100802.97;;;-0.16
48854;BMP280;34673;52.808;17.856;2023-12-04T13:19:31;100799.47;;;-0.18
48854;BMP280;34673;52.808;17.856;2023-12-04T13:22:01;100799.22;;;-0.24
48854;BMP280;34673;52.808;17.856;2023-12-04T13:24:31;100789.19;;;-0.40
48854;BMP280;34673;52.808;17.856;2023-12-04T13:26:58;100796.53;;;-0.47
48854;BMP280;34673;52.808;17.856;2023-12-04T13:29:26;100790.00;;;-0.61
48854;BMP280;34673;52.808;17.856;2023-12-04T13:31:53;100792.28;;;-0.67
48854;BMP280;34673;52.808;17.856;2023-12-04T13:34:20;100797.22;;;-0.70
48854;BMP280;34673;52.808;17.856;2023-12-04T13:36:49;100786.63;;;-0.79
48854;BMP280;34673;52.808;17.856;2023-12-04T13:39:17;100789.59;;;-0.90
48854;BMP280;34673;52.808;17.856;2023-12-04T13:41:47;100790.75;;;-1.01
48854;BMP280;34673;52.808;17.856;2023-12-04T13:44:32;100790.19;;;-1.13
48854;BMP280;34673;52.808;17.856;2023-12-04T13:47:00;100784.84;;;-1.19
48854;BMP280;34673;52.808;17.856;2023-12-04T13:49:28;100779.47;;;-1.25
48854;BMP280;34673;52.808;17.856;2023-12-04T13:51:55;100784.25;;;-1.31
48854;BMP280;34673;52.808;17.856;2023-12-04T13:54:22;100775.56;;;-1.37
48854;BMP280;34673;52.808;17.856;2023-12-04T13:57:02;100775.88;;;-1.48
48854;BMP280;34673;52.808;17.856;2023-12-04T13:59:31;100786.75;;;-1.51
48854;BMP280;34673;52.808;17.856;2023-12-04T14:02:00;100783.78;;;-1.60